createdAt,value
2022-08-07T00:00:20.323Z,11.800000
2022-08-07T00:05:23.758Z,11.800000
2022-08-07T00:10:27.185Z,11.700000
2022-08-07T00:15:23.258Z,11.700000
2022-08-07T00:20:29.925Z,11.600000
2022-08-07T00:25:25.239Z,11.500000
2022-08-07T00:30:27.644Z,11.500000
2022-08-07T00:35:27.189Z,11.500000
2022-08-07T00:40:38.963Z,11.400000
2022-08-07T00:45:29.350Z,11.300000
2022-08-07T00:50:50.559Z,11.200000
2022-08-07T00:56:02.383Z,11.100000
2022-08-07T01:00:32.364Z,11.100000
2022-08-07T01:05:36.573Z,11.000000
2022-08-07T01:10:34.465Z,11.000000
2022-08-07T01:15:35.798Z,10.900000
2022-08-07T01:20:43.140Z,10.800000
2022-08-07T01:25:54.027Z,10.700000
2022-08-07T01:30:38.499Z,10.700000
2022-08-07T01:35:53.220Z,10.700000
2022-08-07T01:40:40.524Z,10.600000
2022-08-07T01:45:41.532Z,10.600000
2022-08-07T01:50:43.370Z,10.500000
2022-08-07T01:55:43.403Z,10.400000
2022-08-07T02:00:48.884Z,10.400000
2022-08-07T02:05:48.623Z,10.400000
2022-08-07T02:10:55.051Z,10.300000
2022-08-07T02:15:47.523Z,10.200000
2022-08-07T02:20:48.654Z,10.200000
2022-08-07T02:30:50.219Z,10.200000
2022-08-07T02:36:30.255Z,10.100000
2022-08-07T02:40:55.940Z,10.100000
2022-08-07T02:46:00.962Z,10.000000
2022-08-07T02:50:54.298Z,10.000000
2022-08-07T02:56:04.395Z,9.900000
2022-08-07T03:00:56.396Z,9.800000
2022-08-07T03:05:57.332Z,9.800000
2022-08-07T03:10:58.328Z,9.800000
2022-08-07T03:15:59.263Z,9.800000
2022-08-07T03:21:00.281Z,9.800000
2022-08-07T03:26:01.203Z,9.700000
2022-08-07T03:31:02.139Z,9.700000
2022-08-07T03:36:03.007Z,9.616667
2022-08-07T03:41:04.034Z,9.600000
2022-08-07T03:46:10.383Z,9.500000
2022-08-07T03:51:06.020Z,9.600000
2022-08-07T03:56:07.036Z,9.500000
2022-08-07T04:01:11.154Z,9.500000
2022-08-07T04:12:23.691Z,9.500000
2022-08-07T04:12:27.030Z,9.500000
2022-08-07T04:16:11.052Z,9.500000
2022-08-07T04:21:11.926Z,9.500000
2022-08-07T04:26:12.824Z,9.500000
2022-08-07T04:31:20.000Z,9.500000
2022-08-07T04:36:14.720Z,9.500000
2022-08-07T04:40:15.685Z,9.500000
2022-08-07T04:45:20.962Z,9.700000
2022-08-07T04:50:17.568Z,9.700000
2022-08-07T04:58:12.325Z,9.700000
2022-08-07T04:58:24.118Z,9.700000
2022-08-07T04:58:29.318Z,9.700000
2022-08-07T05:00:31.806Z,9.700000
2022-08-07T05:05:51.921Z,9.800000
2022-08-07T05:10:21.578Z,9.900000
2022-08-07T05:15:23.754Z,9.900000
2022-08-07T05:20:23.502Z,10.100000
2022-08-07T05:25:25.495Z,10.100000
2022-08-07T05:30:32.603Z,10.300000
2022-08-07T05:35:33.114Z,10.400000
2022-08-07T05:40:28.681Z,10.700000
2022-08-07T05:45:46.710Z,10.800000
2022-08-07T05:50:29.600Z,11.000000
2022-08-07T05:56:01.835Z,11.300000
2022-08-07T06:00:31.791Z,11.500000
2022-08-07T06:05:32.772Z,11.700000
2022-08-07T06:10:33.765Z,12.100000
2022-08-07T06:15:42.251Z,12.300000
2022-08-07T06:20:50.870Z,12.700000
2022-08-07T06:22:14.392Z,12.700000
2022-08-07T06:25:36.703Z,13.100000
2022-08-07T06:30:42.648Z,13.800000
2022-08-07T06:35:39.146Z,13.900000
2022-08-07T06:40:39.924Z,14.300000
2022-08-07T06:45:40.827Z,15.000000
2022-08-07T06:50:43.325Z,15.200000
2022-08-07T06:56:00.993Z,15.500000
2022-08-07T07:00:43.732Z,15.900000
2022-08-07T07:06:02.740Z,16.400000
2022-08-07T07:10:54.660Z,16.600000
2022-08-07T07:15:51.612Z,16.900000
2022-08-07T07:20:47.706Z,17.300000
2022-08-07T07:26:35.787Z,17.800000
2022-08-07T07:30:49.605Z,17.900000
2022-08-07T07:36:03.851Z,18.500000
2022-08-07T07:40:51.587Z,18.700000
2022-08-07T07:46:39.852Z,18.900000
2022-08-07T07:47:04.336Z,18.900000
2022-08-07T07:50:53.537Z,19.100000
2022-08-07T07:55:57.806Z,19.200000
2022-08-07T08:00:55.464Z,19.700000
2022-08-07T08:05:56.428Z,19.800000
2022-08-07T08:10:57.473Z,19.900000
2022-08-07T08:16:00.744Z,20.300000
2022-08-07T08:20:59.460Z,20.400000
2022-08-07T08:26:04.693Z,20.600000
2022-08-07T08:31:01.322Z,20.900000
2022-08-07T08:36:02.302Z,21.100000
2022-08-07T08:41:03.207Z,21.266667
2022-08-07T08:46:04.226Z,21.500000
2022-08-07T08:51:14.264Z,21.700000
2022-08-07T08:56:06.218Z,22.200000
2022-08-07T09:01:15.726Z,22.400000
2022-08-07T09:06:10.501Z,22.700000
2022-08-07T09:11:09.164Z,23.200000
2022-08-07T09:16:21.572Z,23.400000
2022-08-07T09:21:13.970Z,23.200000
2022-08-07T09:26:12.437Z,23.500000
2022-08-07T09:31:13.386Z,23.200000
2022-08-07T09:41:15.160Z,23.100000
2022-08-07T09:47:24.152Z,23.200000
2022-08-07T09:47:24.645Z,23.200000
2022-08-07T09:48:01.161Z,23.200000
2022-08-07T09:50:19.530Z,23.100000
2022-08-07T09:55:29.842Z,22.900000
2022-08-07T10:00:19.089Z,23.000000
2022-08-07T10:05:20.106Z,23.500000
2022-08-07T10:10:22.904Z,24.100000
2022-08-07T10:15:22.008Z,25.100000
2022-08-07T10:20:30.287Z,25.600000
2022-08-07T10:25:24.044Z,25.800000
2022-08-07T10:30:26.458Z,26.300000
2022-08-07T10:35:25.992Z,27.000000
2022-08-07T10:40:30.249Z,27.200000
2022-08-07T10:45:45.100Z,27.500000
2022-08-07T10:50:28.865Z,27.600000
2022-08-07T10:55:38.000Z,27.700000
2022-08-07T11:00:36.701Z,28.300000
2022-08-07T11:05:35.491Z,28.100000
2022-08-07T11:10:32.905Z,28.300000
2022-08-07T11:15:33.908Z,29.100000
2022-08-07T11:20:34.882Z,29.300000
2022-08-07T11:25:42.249Z,29.300000
2022-08-07T11:30:41.973Z,28.900000
2022-08-07T11:35:59.618Z,28.700000
2022-08-07T11:45:40.560Z,29.700000
2022-08-07T11:50:44.295Z,28.900000
2022-08-07T11:56:25.101Z,28.200000
2022-08-07T12:00:42.894Z,28.700000
2022-08-07T12:05:49.119Z,29.000000
2022-08-07T12:10:44.826Z,29.300000
2022-08-07T12:16:05.766Z,29.700000
2022-08-07T12:20:46.634Z,30.300000
2022-08-07T12:26:22.316Z,29.800000
2022-08-07T12:30:48.604Z,29.600000
2022-08-07T12:35:58.136Z,30.200000
2022-08-07T12:40:50.814Z,31.100000
2022-08-07T12:45:52.505Z,29.900000
2022-08-07T12:50:52.705Z,29.000000
2022-08-07T12:56:03.052Z,27.800000
2022-08-07T13:00:54.578Z,28.500000
2022-08-07T13:06:04.013Z,28.500000
2022-08-07T13:10:56.383Z,27.700000
2022-08-07T13:15:59.216Z,27.700000
2022-08-07T13:20:58.221Z,28.300000
2022-08-07T13:26:00.768Z,28.000000
2022-08-07T13:31:01.782Z,27.800000
2022-08-07T13:36:05.694Z,29.100000
2022-08-07T13:41:02.273Z,28.300000
2022-08-07T13:46:11.255Z,28.300000
2022-08-07T13:51:21.222Z,27.550000
2022-08-07T13:56:05.356Z,27.600000
2022-08-07T14:01:09.052Z,27.600000
2022-08-07T14:06:07.253Z,28.100000
2022-08-07T14:11:14.962Z,28.800000
2022-08-07T14:16:15.196Z,28.200000
2022-08-07T14:21:21.250Z,28.600000
2022-08-07T14:22:18.677Z,28.600000
2022-08-07T14:26:11.188Z,28.200000
2022-08-07T14:31:12.167Z,28.100000
2022-08-07T14:36:13.394Z,27.700000
2022-08-07T14:41:15.023Z,28.300000
2022-08-07T14:46:17.396Z,28.300000
2022-08-07T14:50:15.963Z,28.500000
2022-08-07T14:55:17.708Z,28.500000
2022-08-07T15:00:20.678Z,28.600000
2022-08-07T15:05:19.737Z,28.400000
2022-08-07T15:06:25.218Z,28.400000
2022-08-07T15:10:19.874Z,28.300000
2022-08-07T15:15:22.277Z,28.400000
2022-08-07T15:20:33.363Z,28.200000
2022-08-07T15:25:23.067Z,27.800000
2022-08-07T15:30:23.962Z,27.600000
2022-08-07T15:37:03.827Z,27.400000
2022-08-07T15:40:35.039Z,27.300000
2022-08-07T15:45:58.096Z,27.400000
2022-08-07T15:52:03.143Z,27.500000
2022-08-07T15:55:53.804Z,27.100000
2022-08-07T16:00:33.643Z,27.000000
2022-08-07T16:05:31.123Z,26.900000
2022-08-07T16:10:31.770Z,26.700000
2022-08-07T16:15:57.784Z,26.600000
2022-08-07T16:20:34.746Z,26.500000
2022-08-07T16:25:52.371Z,26.200000
2022-08-07T16:30:35.767Z,26.000000
2022-08-07T16:35:51.806Z,25.900000
2022-08-07T16:40:51.049Z,25.600000
2022-08-07T16:46:20.990Z,25.400000
2022-08-07T16:47:07.592Z,25.400000
2022-08-07T16:50:52.828Z,25.100000
2022-08-07T16:55:47.681Z,24.800000
2022-08-07T17:00:41.681Z,24.700000
2022-08-07T17:06:22.489Z,24.600000
2022-08-07T17:10:43.641Z,24.400000
2022-08-07T17:15:51.561Z,24.300000
2022-08-07T17:20:46.482Z,24.200000
2022-08-07T17:25:47.458Z,24.200000
2022-08-07T17:30:58.020Z,24.100000
2022-08-07T17:35:50.680Z,24.000000
2022-08-07T17:40:50.712Z,23.900000
2022-08-07T17:45:50.803Z,23.700000
2022-08-07T17:50:51.722Z,23.500000
2022-08-07T17:55:59.913Z,23.500000
2022-08-07T18:00:53.844Z,23.300000
2022-08-07T18:06:02.441Z,23.100000
2022-08-07T18:12:06.329Z,22.900000
2022-08-07T18:12:11.909Z,22.900000
2022-08-07T18:15:56.651Z,22.800000
2022-08-07T18:21:05.946Z,22.500000
2022-08-07T18:26:01.013Z,22.300000
2022-08-07T18:30:59.464Z,22.100000
2022-08-07T18:36:00.596Z,21.800000
2022-08-07T18:41:09.144Z,21.600000
2022-08-07T18:46:22.034Z,21.350000
2022-08-07T18:51:03.566Z,21.133333
2022-08-07T18:56:04.553Z,20.900000
2022-08-07T19:01:05.507Z,20.700000
2022-08-07T19:06:06.422Z,20.500000
2022-08-07T19:11:35.779Z,20.200000
2022-08-07T19:17:00.526Z,20.000000
2022-08-07T19:21:14.989Z,19.800000
2022-08-07T19:26:24.956Z,19.600000
2022-08-07T19:31:37.162Z,19.400000
2022-08-07T19:36:12.228Z,19.300000
2022-08-07T19:41:13.216Z,19.100000
2022-08-07T19:46:14.708Z,18.800000
2022-08-07T19:51:19.607Z,18.700000
2022-08-07T19:55:15.948Z,18.500000
2022-08-07T20:00:28.039Z,18.200000
2022-08-07T20:05:17.888Z,18.100000
2022-08-07T20:10:37.773Z,18.000000
2022-08-07T20:15:22.247Z,17.800000
2022-08-07T20:20:20.907Z,17.600000
2022-08-07T20:25:21.744Z,17.500000
2022-08-07T20:30:22.756Z,17.400000
2022-08-07T20:35:26.378Z,17.300000
2022-08-07T20:45:32.755Z,16.900000
2022-08-07T20:50:26.700Z,16.900000
2022-08-07T20:55:27.643Z,16.700000
2022-08-07T21:00:28.511Z,16.600000
2022-08-07T21:05:52.666Z,16.500000
2022-08-07T21:10:31.608Z,16.400000
2022-08-07T21:15:58.004Z,16.200000
2022-08-07T21:20:33.371Z,16.200000
2022-08-07T21:25:38.678Z,16.100000
2022-08-07T21:30:34.620Z,16.000000
2022-08-07T21:36:06.636Z,15.800000
2022-08-07T21:40:38.195Z,15.700000
2022-08-07T21:46:04.810Z,15.700000
2022-08-07T21:50:38.583Z,15.500000
2022-08-07T21:55:39.621Z,15.400000
2022-08-07T22:00:40.921Z,15.400000
2022-08-07T22:05:45.472Z,15.300000
2022-08-07T22:10:42.747Z,15.100000
2022-08-07T22:16:42.991Z,15.100000
2022-08-07T22:16:48.803Z,15.100000
2022-08-07T22:20:44.647Z,15.000000
2022-08-07T22:25:45.535Z,14.900000
2022-08-07T22:30:52.029Z,14.800000
2022-08-07T22:35:47.559Z,14.700000
2022-08-07T22:40:48.572Z,14.600000
2022-08-07T22:46:40.526Z,14.500000
2022-08-07T22:47:03.309Z,14.500000
2022-08-07T22:50:50.521Z,14.400000
2022-08-07T22:55:51.532Z,14.400000
2022-08-07T23:00:52.545Z,14.300000
2022-08-07T23:06:08.736Z,14.300000
2022-08-07T23:10:54.575Z,14.200000
2022-08-07T23:16:06.796Z,14.100000
2022-08-07T23:20:57.727Z,14.000000
2022-08-07T23:25:57.290Z,14.000000
2022-08-07T23:31:06.948Z,13.900000
2022-08-07T23:35:59.219Z,13.800000
2022-08-07T23:41:00.323Z,13.800000
2022-08-07T23:46:07.480Z,13.700000
2022-08-07T23:51:02.391Z,13.600000
2022-08-07T23:56:03.426Z,13.516667
